sensor_id;sensor_type;location;lat;lon;timestamp;P1;durP1;ratioP1;P2;durP2;ratioP2
51298;SDS011;37382;45.192;9.790;2023-07-24T03:52:00;50.75;;;34.97;;
51298;SDS011;37382;45.192;9.790;2023-07-24T03:54:27;48.10;;;36.58;;
51298;SDS011;37382;45.192;9.790;2023-07-24T03:56:55;53.85;;;37.03;;
51298;SDS011;37382;45.192;9.790;2023-07-24T03:59:22;56.20;;;34.60;;
51298;SDS011;37382;45.192;9.790;2023-07-24T04:01:50;45.42;;;33.42;;
51298;SDS011;37382;45.192;9.790;2023-07-24T04:04:17;48.42;;;33.00;;
51298;SDS011;37382;45.192;9.790;2023-07-24T04:06:45;54.75;;;33.58;;
51298;SDS011;37382;45.192;9.790;2023-07-24T04:09:13;51.83;;;32.28;;
51298;SDS011;37382;45.192;9.790;2023-07-24T04:11:45;61.97;;;34.40;;
51298;SDS011;37382;45.192;9.790;2023-07-24T04:14:12;55.63;;;33.45;;
51298;SDS011;37382;45.192;9.790;2023-07-24T04:16:40;55.60;;;33.63;;
51298;SDS011;37382;45.192;9.790;2023-07-24T04:19:07;50.70;;;34.97;;
51298;SDS011;37382;45.192;9.790;2023-07-24T04:21:35;53.53;;;34.33;;
51298;SDS011;37382;45.192;9.790;2023-07-24T04:24:03;57.67;;;33.67;;
51298;SDS011;37382;45.192;9.790;2023-07-24T04:26:31;60.70;;;36.35;;
51298;SDS011;37382;45.192;9.790;2023-07-24T04:29:01;49.03;;;34.03;;
51298;SDS011;37382;45.192;9.790;2023-07-24T04:31:29;48.50;;;33.40;;
51298;SDS011;37382;45.192;9.790;2023-07-24T04:33:56;45.17;;;31.95;;
51298;SDS011;37382;45.192;9.790;2023-07-24T04:36:24;49.08;;;31.63;;
51298;SDS011;37382;45.192;9.790;2023-07-24T04:38:52;48.50;;;29.98;;
51298;SDS011;37382;45.192;9.790;2023-07-24T04:41:20;57.72;;;32.00;;
51298;SDS011;37382;45.192;9.790;2023-07-24T04:43:47;49.97;;;30.02;;
51298;SDS011;37382;45.192;9.790;2023-07-24T04:46:15;45.05;;;28.80;;
51298;SDS011;37382;45.192;9.790;2023-07-24T04:48:42;44.92;;;29.58;;
51298;SDS011;37382;45.192;9.790;2023-07-24T04:51:10;40.95;;;28.85;;
51298;SDS011;37382;45.192;9.790;2023-07-24T04:53:38;43.28;;;28.95;;
51298;SDS011;37382;45.192;9.790;2023-07-24T04:56:06;47.42;;;28.55;;
51298;SDS011;37382;45.192;9.790;2023-07-24T04:58:34;46.75;;;27.67;;
51298;SDS011;37382;45.192;9.790;2023-07-24T05:01:02;49.03;;;28.80;;
51298;SDS011;37382;45.192;9.790;2023-07-24T05:03:31;46.15;;;28.98;;
51298;SDS011;37382;45.192;9.790;2023-07-24T05:05:59;43.50;;;28.73;;
51298;SDS011;37382;45.192;9.790;2023-07-24T05:08:27;53.25;;;30.90;;
51298;SDS011;37382;45.192;9.790;2023-07-24T05:10:58;55.75;;;30.58;;
51298;SDS011;37382;45.192;9.790;2023-07-24T05:13:26;54.72;;;31.45;;
51298;SDS011;37382;45.192;9.790;2023-07-24T05:15:54;55.15;;;30.50;;
51298;SDS011;37382;45.192;9.790;2023-07-24T05:18:21;46.08;;;30.55;;
51298;SDS011;37382;45.192;9.790;2023-07-24T05:20:49;48.15;;;30.27;;
51298;SDS011;37382;45.192;9.790;2023-07-24T05:23:18;50.08;;;29.98;;
51298;SDS011;37382;45.192;9.790;2023-07-24T05:25:46;42.92;;;30.00;;
51298;SDS011;37382;45.192;9.790;2023-07-24T05:28:14;46.50;;;30.80;;
51298;SDS011;37382;45.192;9.790;2023-07-24T05:30:41;49.50;;;31.70;;
51298;SDS011;37382;45.192;9.790;2023-07-24T05:33:08;43.60;;;30.90;;
51298;SDS011;37382;45.192;9.790;2023-07-24T05:35:36;51.40;;;32.58;;
51298;SDS011;37382;45.192;9.790;2023-07-24T05:38:03;52.83;;;33.30;;
51298;SDS011;37382;45.192;9.790;2023-07-24T05:40:31;52.22;;;32.13;;
51298;SDS011;37382;45.192;9.790;2023-07-24T05:42:59;48.50;;;32.95;;
51298;SDS011;37382;45.192;9.790;2023-07-24T05:45:27;51.63;;;33.28;;
51298;SDS011;37382;45.192;9.790;2023-07-24T05:47:54;45.35;;;33.65;;
51298;SDS011;37382;45.192;9.790;2023-07-24T05:50:22;46.75;;;32.75;;
51298;SDS011;37382;45.192;9.790;2023-07-24T05:52:49;64.50;;;33.78;;
51298;SDS011;37382;45.192;9.790;2023-07-24T05:55:16;49.45;;;32.20;;
51298;SDS011;37382;45.192;9.790;2023-07-24T05:57:44;43.97;;;31.25;;
51298;SDS011;37382;45.192;9.790;2023-07-24T06:00:12;44.10;;;31.75;;
51298;SDS011;37382;45.192;9.790;2023-07-24T06:02:42;49.45;;;31.85;;
51298;SDS011;37382;45.192;9.790;2023-07-24T06:05:09;48.92;;;31.00;;
51298;SDS011;37382;45.192;9.790;2023-07-24T06:07:37;47.65;;;31.10;;
51298;SDS011;37382;45.192;9.790;2023-07-24T06:10:04;52.85;;;30.27;;
51298;SDS011;37382;45.192;9.790;2023-07-24T06:12:32;43.58;;;27.42;;
51298;SDS011;37382;45.192;9.790;2023-07-24T06:14:59;43.88;;;29.08;;
51298;SDS011;37382;45.192;9.790;2023-07-24T06:17:27;44.97;;;29.88;;
51298;SDS011;37382;45.192;9.790;2023-07-24T06:19:54;49.20;;;28.10;;
51298;SDS011;37382;45.192;9.790;2023-07-24T06:22:22;43.22;;;26.63;;
51298;SDS011;37382;45.192;9.790;2023-07-24T06:24:50;40.42;;;26.08;;
51298;SDS011;37382;45.192;9.790;2023-07-24T06:27:18;38.20;;;26.63;;
51298;SDS011;37382;45.192;9.790;2023-07-24T06:29:46;39.70;;;25.95;;
51298;SDS011;37382;45.192;9.790;2023-07-24T06:32:17;42.05;;;25.55;;
51298;SDS011;37382;45.192;9.790;2023-07-24T06:34:45;40.10;;;25.88;;
51298;SDS011;37382;45.192;9.790;2023-07-24T06:37:12;37.42;;;24.60;;
51298;SDS011;37382;45.192;9.790;2023-07-24T06:39:48;35.92;;;23.98;;
51298;SDS011;37382;45.192;9.790;2023-07-24T06:42:16;41.72;;;23.73;;
51298;SDS011;37382;45.192;9.790;2023-07-24T06:44:44;42.63;;;22.35;;
51298;SDS011;37382;45.192;9.790;2023-07-24T06:47:11;42.75;;;23.73;;
51298;SDS011;37382;45.192;9.790;2023-07-24T06:49:38;32.30;;;22.33;;
51298;SDS011;37382;45.192;9.790;2023-07-24T06:52:06;38.20;;;21.77;;
51298;SDS011;37382;45.192;9.790;2023-07-24T06:54:34;32.22;;;21.15;;
51298;SDS011;37382;45.192;9.790;2023-07-24T06:57:01;30.98;;;20.05;;
51298;SDS011;37382;45.192;9.790;2023-07-24T06:59:29;32.97;;;20.30;;
51298;SDS011;37382;45.192;9.790;2023-07-24T07:01:56;35.08;;;21.15;;
51298;SDS011;37382;45.192;9.790;2023-07-24T07:04:24;33.30;;;20.50;;
51298;SDS011;37382;45.192;9.790;2023-07-24T07:06:52;27.70;;;18.83;;
51298;SDS011;37382;45.192;9.790;2023-07-24T07:09:19;28.33;;;19.85;;
51298;SDS011;37382;45.192;9.790;2023-07-24T07:11:47;36.92;;;19.98;;
51298;SDS011;37382;45.192;9.790;2023-07-24T07:14:14;29.88;;;18.90;;
51298;SDS011;37382;45.192;9.790;2023-07-24T07:16:42;32.75;;;19.08;;
51298;SDS011;37382;45.192;9.790;2023-07-24T07:19:10;35.65;;;18.73;;
51298;SDS011;37382;45.192;9.790;2023-07-24T07:21:37;27.67;;;18.80;;
51298;SDS011;37382;45.192;9.790;2023-07-24T07:24:05;38.97;;;18.45;;
51298;SDS011;37382;45.192;9.790;2023-07-24T07:26:32;31.70;;;18.73;;
51298;SDS011;37382;45.192;9.790;2023-07-24T07:29:00;28.75;;;17.80;;
51298;SDS011;37382;45.192;9.790;2023-07-24T07:31:28;28.25;;;17.80;;
51298;SDS011;37382;45.192;9.790;2023-07-24T07:33:56;32.03;;;18.48;;
51298;SDS011;37382;45.192;9.790;2023-07-24T07:36:23;33.30;;;17.77;;
51298;SDS011;37382;45.192;9.790;2023-07-24T07:38:51;30.83;;;18.27;;
51298;SDS011;37382;45.192;9.790;2023-07-24T07:41:19;32.40;;;17.45;;
51298;SDS011;37382;45.192;9.790;2023-07-24T07:43:47;27.98;;;16.23;;
51298;SDS011;37382;45.192;9.790;2023-07-24T07:46:15;29.10;;;17.50;;
51298;SDS011;37382;45.192;9.790;2023-07-24T07:48:42;32.17;;;17.05;;
51298;SDS011;37382;45.192;9.790;2023-07-24T07:51:10;27.75;;;16.15;;
51298;SDS011;37382;45.192;9.790;2023-07-24T07:53:37;26.17;;;15.65;;
51298;SDS011;37382;45.192;9.790;2023-07-24T07:56:05;30.40;;;16.27;;
51298;SDS011;37382;45.192;9.790;2023-07-24T07:58:33;28.60;;;16.73;;
51298;SDS011;37382;45.192;9.790;2023-07-24T08:01:04;28.90;;;16.35;;
51298;SDS011;37382;45.192;9.790;2023-07-24T08:03:32;29.02;;;15.93;;
51298;SDS011;37382;45.192;9.790;2023-07-24T08:06:01;24.75;;;15.82;;
51298;SDS011;37382;45.192;9.790;2023-07-24T08:08:29;30.25;;;16.60;;
51298;SDS011;37382;45.192;9.790;2023-07-24T08:10:56;23.83;;;15.40;;
51298;SDS011;37382;45.192;9.790;2023-07-24T08:13:24;35.17;;;16.63;;
51298;SDS011;37382;45.192;9.790;2023-07-24T08:15:51;31.77;;;16.05;;
51298;SDS011;37382;45.192;9.790;2023-07-24T08:18:19;37.53;;;16.48;;
51298;SDS011;37382;45.192;9.790;2023-07-24T08:20:47;29.42;;;15.77;;
51298;SDS011;37382;45.192;9.790;2023-07-24T08:23:14;31.25;;;16.40;;
51298;SDS011;37382;45.192;9.790;2023-07-24T08:25:54;26.40;;;16.15;;
51298;SDS011;37382;45.192;9.790;2023-07-24T08:28:22;32.05;;;15.45;;
51298;SDS011;37382;45.192;9.790;2023-07-24T08:30:56;32.53;;;16.27;;
51298;SDS011;37382;45.192;9.790;2023-07-24T08:33:25;29.60;;;15.70;;
51298;SDS011;37382;45.192;9.790;2023-07-24T08:36:26;31.13;;;15.77;;
51298;SDS011;37382;45.192;9.790;2023-07-24T08:38:46;22.95;;;14.65;;
51298;SDS011;37382;45.192;9.790;2023-07-24T08:41:14;27.58;;;14.55;;
51298;SDS011;37382;45.192;9.790;2023-07-24T08:43:42;29.38;;;15.95;;
51298;SDS011;37382;45.192;9.790;2023-07-24T08:46:11;25.83;;;14.63;;
51298;SDS011;37382;45.192;9.790;2023-07-24T08:48:39;25.80;;;15.60;;
51298;SDS011;37382;45.192;9.790;2023-07-24T08:51:09;32.10;;;15.48;;
51298;SDS011;37382;45.192;9.790;2023-07-24T08:53:42;33.78;;;15.40;;
51298;SDS011;37382;45.192;9.790;2023-07-24T08:56:11;29.83;;;15.32;;
51298;SDS011;37382;45.192;9.790;2023-07-24T08:58:39;29.05;;;15.43;;
51298;SDS011;37382;45.192;9.790;2023-07-24T09:01:08;31.42;;;14.95;;
51298;SDS011;37382;45.192;9.790;2023-07-24T09:03:37;28.42;;;15.50;;
51298;SDS011;37382;45.192;9.790;2023-07-24T09:06:05;26.63;;;15.40;;
51298;SDS011;37382;45.192;9.790;2023-07-24T09:08:37;26.30;;;16.40;;
51298;SDS011;37382;45.192;9.790;2023-07-24T09:11:07;31.25;;;15.90;;
51298;SDS011;37382;45.192;9.790;2023-07-24T09:13:37;25.95;;;16.25;;
51298;SDS011;37382;45.192;9.790;2023-07-24T09:16:05;32.90;;;16.00;;
51298;SDS011;37382;45.192;9.790;2023-07-24T09:18:40;30.95;;;17.23;;
51298;SDS011;37382;45.192;9.790;2023-07-24T09:21:11;23.80;;;16.15;;
51298;SDS011;37382;45.192;9.790;2023-07-24T09:26:08;27.30;;;15.32;;
51298;SDS011;37382;45.192;9.790;2023-07-24T09:28:36;39.60;;;17.35;;
51298;SDS011;37382;45.192;9.790;2023-07-24T09:31:04;79.80;;;19.92;;
51298;SDS011;37382;45.192;9.790;2023-07-24T09:36:08;37.85;;;17.60;;
51298;SDS011;37382;45.192;9.790;2023-07-24T09:38:36;26.33;;;16.52;;
51298;SDS011;37382;45.192;9.790;2023-07-24T09:41:05;27.05;;;17.30;;
51298;SDS011;37382;45.192;9.790;2023-07-24T09:43:33;34.10;;;16.52;;
51298;SDS011;37382;45.192;9.790;2023-07-24T09:46:07;35.05;;;17.48;;
51298;SDS011;37382;45.192;9.790;2023-07-24T09:48:37;32.40;;;17.33;;
51298;SDS011;37382;45.192;9.790;2023-07-24T09:51:08;29.60;;;16.92;;
51298;SDS011;37382;45.192;9.790;2023-07-24T09:53:45;43.10;;;20.52;;
51298;SDS011;37382;45.192;9.790;2023-07-24T09:56:22;37.05;;;20.05;;
51298;SDS011;37382;45.192;9.790;2023-07-24T09:59:10;29.15;;;19.50;;
51298;SDS011;37382;45.192;9.790;2023-07-24T10:01:39;41.95;;;20.25;;
51298;SDS011;37382;45.192;9.790;2023-07-24T10:04:08;32.55;;;20.58;;
51298;SDS011;37382;45.192;9.790;2023-07-24T10:06:37;35.50;;;20.67;;
51298;SDS011;37382;45.192;9.790;2023-07-24T10:09:05;39.38;;;20.17;;
51298;SDS011;37382;45.192;9.790;2023-07-24T10:11:34;38.50;;;20.58;;
51298;SDS011;37382;45.192;9.790;2023-07-24T10:14:03;27.50;;;20.35;;
51298;SDS011;37382;45.192;9.790;2023-07-24T10:16:32;31.92;;;20.95;;
51298;SDS011;37382;45.192;9.790;2023-07-24T10:19:01;32.13;;;21.17;;
51298;SDS011;37382;45.192;9.790;2023-07-24T10:21:28;38.15;;;22.35;;
51298;SDS011;37382;45.192;9.790;2023-07-24T10:23:59;34.13;;;21.45;;
51298;SDS011;37382;45.192;9.790;2023-07-24T10:28:54;35.40;;;20.98;;
51298;SDS011;37382;45.192;9.790;2023-07-24T10:31:23;35.75;;;21.00;;
51298;SDS011;37382;45.192;9.790;2023-07-24T10:34:04;34.28;;;20.25;;
51298;SDS011;37382;45.192;9.790;2023-07-24T10:36:36;45.30;;;21.55;;
51298;SDS011;37382;45.192;9.790;2023-07-24T10:39:12;45.03;;;23.50;;
51298;SDS011;37382;45.192;9.790;2023-07-24T10:41:42;41.78;;;22.98;;
51298;SDS011;37382;45.192;9.790;2023-07-24T10:44:12;40.00;;;22.85;;
51298;SDS011;37382;45.192;9.790;2023-07-24T10:46:40;41.72;;;23.77;;
51298;SDS011;37382;45.192;9.790;2023-07-24T10:49:12;46.03;;;24.45;;
51298;SDS011;37382;45.192;9.790;2023-07-24T10:51:39;38.03;;;23.55;;
51298;SDS011;37382;45.192;9.790;2023-07-24T10:54:07;40.15;;;25.00;;
51298;SDS011;37382;45.192;9.790;2023-07-24T10:56:36;49.38;;;25.73;;
51298;SDS011;37382;45.192;9.790;2023-07-24T10:59:03;36.08;;;22.55;;
51298;SDS011;37382;45.192;9.790;2023-07-24T11:01:31;34.35;;;23.38;;
51298;SDS011;37382;45.192;9.790;2023-07-24T11:04:01;39.33;;;22.80;;
51298;SDS011;37382;45.192;9.790;2023-07-24T11:06:29;33.20;;;23.40;;
51298;SDS011;37382;45.192;9.790;2023-07-24T11:08:57;40.30;;;22.83;;
51298;SDS011;37382;45.192;9.790;2023-07-24T11:11:30;37.65;;;24.17;;
51298;SDS011;37382;45.192;9.790;2023-07-24T11:14:01;35.25;;;23.88;;
51298;SDS011;37382;45.192;9.790;2023-07-24T11:16:30;38.97;;;24.20;;
51298;SDS011;37382;45.192;9.790;2023-07-24T11:19:01;37.45;;;24.17;;
51298;SDS011;37382;45.192;9.790;2023-07-24T11:21:29;33.40;;;24.08;;
51298;SDS011;37382;45.192;9.790;2023-07-24T11:23:58;38.85;;;23.40;;
51298;SDS011;37382;45.192;9.790;2023-07-24T11:26:26;42.47;;;24.30;;
51298;SDS011;37382;45.192;9.790;2023-07-24T11:28:55;36.35;;;24.58;;
51298;SDS011;37382;45.192;9.790;2023-07-24T11:31:22;103.45;;;30.35;;
51298;SDS011;37382;45.192;9.790;2023-07-24T11:33:51;33.90;;;23.95;;
51298;SDS011;37382;45.192;9.790;2023-07-24T11:36:20;41.35;;;24.80;;
51298;SDS011;37382;45.192;9.790;2023-07-24T11:38:49;41.00;;;23.52;;
51298;SDS011;37382;45.192;9.790;2023-07-24T11:41:17;38.53;;;24.00;;
51298;SDS011;37382;45.192;9.790;2023-07-24T11:43:45;42.92;;;26.10;;
51298;SDS011;37382;45.192;9.790;2023-07-24T11:48:52;41.33;;;22.88;;
51298;SDS011;37382;45.192;9.790;2023-07-24T11:54:03;33.00;;;21.67;;
51298;SDS011;37382;45.192;9.790;2023-07-24T11:56:33;30.95;;;19.65;;
51298;SDS011;37382;45.192;9.790;2023-07-24T11:59:14;36.78;;;20.13;;
51298;SDS011;37382;45.192;9.790;2023-07-24T12:01:46;31.63;;;21.02;;
51298;SDS011;37382;45.192;9.790;2023-07-24T12:04:17;33.80;;;19.70;;
51298;SDS011;37382;45.192;9.790;2023-07-24T12:06:45;48.38;;;19.00;;
51298;SDS011;37382;45.192;9.790;2023-07-24T12:09:13;31.02;;;19.02;;
51298;SDS011;37382;45.192;9.790;2023-07-24T12:11:42;31.92;;;18.27;;
51298;SDS011;37382;45.192;9.790;2023-07-24T12:14:13;29.92;;;16.00;;
51298;SDS011;37382;45.192;9.790;2023-07-24T12:16:42;28.15;;;15.57;;
51298;SDS011;37382;45.192;9.790;2023-07-24T12:19:10;29.10;;;15.10;;
51298;SDS011;37382;45.192;9.790;2023-07-24T12:21:37;26.48;;;16.23;;
51298;SDS011;37382;45.192;9.790;2023-07-24T12:24:05;28.63;;;15.55;;
51298;SDS011;37382;45.192;9.790;2023-07-24T12:26:32;24.92;;;14.70;;
51298;SDS011;37382;45.192;9.790;2023-07-24T12:29:00;34.20;;;14.23;;
51298;SDS011;37382;45.192;9.790;2023-07-24T12:31:28;24.45;;;13.35;;
51298;SDS011;37382;45.192;9.790;2023-07-24T12:33:57;31.83;;;14.80;;
51298;SDS011;37382;45.192;9.790;2023-07-24T12:36:24;30.40;;;14.93;;
51298;SDS011;37382;45.192;9.790;2023-07-24T12:38:52;23.60;;;13.18;;
51298;SDS011;37382;45.192;9.790;2023-07-24T12:41:19;24.05;;;13.43;;
51298;SDS011;37382;45.192;9.790;2023-07-24T12:43:47;22.73;;;13.50;;
51298;SDS011;37382;45.192;9.790;2023-07-24T12:46:14;30.35;;;15.00;;
51298;SDS011;37382;45.192;9.790;2023-07-24T12:48:42;39.35;;;17.45;;
51298;SDS011;37382;45.192;9.790;2023-07-24T12:51:10;35.28;;;18.20;;
51298;SDS011;37382;45.192;9.790;2023-07-24T12:53:38;39.28;;;18.35;;
51298;SDS011;37382;45.192;9.790;2023-07-24T12:56:13;30.00;;;17.00;;
51298;SDS011;37382;45.192;9.790;2023-07-24T12:58:41;31.83;;;18.58;;
51298;SDS011;37382;45.192;9.790;2023-07-24T13:01:08;30.10;;;18.45;;
51298;SDS011;37382;45.192;9.790;2023-07-24T13:03:36;32.05;;;19.83;;
51298;SDS011;37382;45.192;9.790;2023-07-24T13:06:04;40.03;;;20.77;;
51298;SDS011;37382;45.192;9.790;2023-07-24T13:08:32;38.38;;;20.90;;
51298;SDS011;37382;45.192;9.790;2023-07-24T13:10:59;28.75;;;16.15;;
51298;SDS011;37382;45.192;9.790;2023-07-24T13:13:27;22.70;;;12.57;;
51298;SDS011;37382;45.192;9.790;2023-07-24T13:16:20;20.42;;;10.25;;
51298;SDS011;37382;45.192;9.790;2023-07-24T13:18:47;27.95;;;9.57;;
51298;SDS011;37382;45.192;9.790;2023-07-24T13:21:15;19.10;;;10.43;;
51298;SDS011;37382;45.192;9.790;2023-07-24T13:23:43;16.35;;;10.25;;
51298;SDS011;37382;45.192;9.790;2023-07-24T13:26:11;21.05;;;10.45;;
51298;SDS011;37382;45.192;9.790;2023-07-24T13:28:39;18.10;;;10.60;;
51298;SDS011;37382;45.192;9.790;2023-07-24T13:33:40;18.70;;;9.68;;
51298;SDS011;37382;45.192;9.790;2023-07-24T13:36:08;15.25;;;9.40;;
51298;SDS011;37382;45.192;9.790;2023-07-24T13:38:36;16.25;;;9.48;;
51298;SDS011;37382;45.192;9.790;2023-07-24T13:41:04;14.93;;;8.95;;
51298;SDS011;37382;45.192;9.790;2023-07-24T13:43:32;21.38;;;9.15;;
51298;SDS011;37382;45.192;9.790;2023-07-24T13:46:00;15.25;;;8.70;;
51298;SDS011;37382;45.192;9.790;2023-07-24T13:48:29;35.10;;;8.50;;
51298;SDS011;37382;45.192;9.790;2023-07-24T13:50:57;13.80;;;8.38;;
51298;SDS011;37382;45.192;9.790;2023-07-24T13:53:25;14.23;;;8.23;;
51298;SDS011;37382;45.192;9.790;2023-07-24T13:55:53;14.07;;;8.25;;
51298;SDS011;37382;45.192;9.790;2023-07-24T13:58:21;15.95;;;8.15;;
51298;SDS011;37382;45.192;9.790;2023-07-24T14:00:49;18.88;;;8.90;;
51298;SDS011;37382;45.192;9.790;2023-07-24T14:03:19;13.95;;;8.48;;
51298;SDS011;37382;45.192;9.790;2023-07-24T14:05:47;17.83;;;8.98;;
51298;SDS011;37382;45.192;9.790;2023-07-24T14:08:15;18.77;;;8.63;;
51298;SDS011;37382;45.192;9.790;2023-07-24T14:10:42;12.15;;;8.45;;
51298;SDS011;37382;45.192;9.790;2023-07-24T14:13:10;12.15;;;8.65;;
51298;SDS011;37382;45.192;9.790;2023-07-24T14:15:37;17.92;;;8.65;;
51298;SDS011;37382;45.192;9.790;2023-07-24T14:18:05;16.85;;;9.80;;
51298;SDS011;37382;45.192;9.790;2023-07-24T14:20:32;16.55;;;9.35;;
51298;SDS011;37382;45.192;9.790;2023-07-24T14:23:00;11.88;;;8.82;;
51298;SDS011;37382;45.192;9.790;2023-07-24T14:25:27;13.30;;;9.40;;
51298;SDS011;37382;45.192;9.790;2023-07-24T14:27:55;15.18;;;9.65;;
51298;SDS011;37382;45.192;9.790;2023-07-24T14:30:23;15.40;;;8.82;;
51298;SDS011;37382;45.192;9.790;2023-07-24T14:32:50;12.32;;;9.18;;
51298;SDS011;37382;45.192;9.790;2023-07-24T14:35:18;17.25;;;9.65;;
51298;SDS011;37382;45.192;9.790;2023-07-24T14:37:46;19.25;;;10.15;;
51298;SDS011;37382;45.192;9.790;2023-07-24T14:40:14;17.90;;;9.88;;
51298;SDS011;37382;45.192;9.790;2023-07-24T14:42:41;16.25;;;10.25;;
51298;SDS011;37382;45.192;9.790;2023-07-24T14:45:09;14.48;;;9.80;;
51298;SDS011;37382;45.192;9.790;2023-07-24T14:47:37;17.63;;;9.93;;
51298;SDS011;37382;45.192;9.790;2023-07-24T14:50:05;16.90;;;11.02;;
51298;SDS011;37382;45.192;9.790;2023-07-24T14:52:33;16.25;;;10.48;;
51298;SDS011;37382;45.192;9.790;2023-07-24T14:55:01;13.93;;;10.02;;
51298;SDS011;37382;45.192;9.790;2023-07-24T14:57:28;20.10;;;10.23;;
51298;SDS011;37382;45.192;9.790;2023-07-24T14:59:55;16.27;;;9.73;;
51298;SDS011;37382;45.192;9.790;2023-07-24T15:02:24;18.63;;;9.80;;
51298;SDS011;37382;45.192;9.790;2023-07-24T15:04:51;15.82;;;10.10;;
51298;SDS011;37382;45.192;9.790;2023-07-24T15:07:18;15.77;;;9.82;;
51298;SDS011;37382;45.192;9.790;2023-07-24T15:09:46;13.38;;;9.48;;
51298;SDS011;37382;45.192;9.790;2023-07-24T15:12:14;15.40;;;9.88;;
51298;SDS011;37382;45.192;9.790;2023-07-24T15:14:41;21.15;;;11.27;;
51298;SDS011;37382;45.192;9.790;2023-07-24T15:17:08;16.05;;;10.90;;
51298;SDS011;37382;45.192;9.790;2023-07-24T15:19:36;16.08;;;9.60;;
51298;SDS011;37382;45.192;9.790;2023-07-24T15:22:04;14.18;;;8.73;;
51298;SDS011;37382;45.192;9.790;2023-07-24T15:24:31;16.13;;;9.30;;
51298;SDS011;37382;45.192;9.790;2023-07-24T15:26:59;18.10;;;9.30;;
51298;SDS011;37382;45.192;9.790;2023-07-24T15:29:27;23.88;;;9.63;;
51298;SDS011;37382;45.192;9.790;2023-07-24T15:31:55;16.60;;;9.70;;
51298;SDS011;37382;45.192;9.790;2023-07-24T15:34:23;18.25;;;8.95;;
51298;SDS011;37382;45.192;9.790;2023-07-24T15:36:51;16.48;;;9.23;;
51298;SDS011;37382;45.192;9.790;2023-07-24T15:39:19;17.00;;;9.43;;
51298;SDS011;37382;45.192;9.790;2023-07-24T15:41:46;20.85;;;9.55;;
51298;SDS011;37382;45.192;9.790;2023-07-24T15:44:14;22.75;;;9.98;;
51298;SDS011;37382;45.192;9.790;2023-07-24T15:46:41;15.90;;;8.90;;
51298;SDS011;37382;45.192;9.790;2023-07-24T15:49:11;15.77;;;8.95;;
51298;SDS011;37382;45.192;9.790;2023-07-24T15:51:39;12.80;;;8.60;;
51298;SDS011;37382;45.192;9.790;2023-07-24T15:54:07;12.25;;;8.02;;
51298;SDS011;37382;45.192;9.790;2023-07-24T15:56:38;12.05;;;8.18;;
51298;SDS011;37382;45.192;9.790;2023-07-24T15:59:06;14.18;;;8.25;;
51298;SDS011;37382;45.192;9.790;2023-07-24T16:01:36;15.27;;;8.02;;
51298;SDS011;37382;45.192;9.790;2023-07-24T16:04:03;13.88;;;8.07;;
51298;SDS011;37382;45.192;9.790;2023-07-24T16:06:31;14.35;;;8.32;;
51298;SDS011;37382;45.192;9.790;2023-07-24T16:08:59;11.27;;;8.38;;
51298;SDS011;37382;45.192;9.790;2023-07-24T16:11:27;10.77;;;8.13;;
51298;SDS011;37382;45.192;9.790;2023-07-24T16:13:56;15.10;;;8.57;;
51298;SDS011;37382;45.192;9.790;2023-07-24T16:16:24;13.15;;;7.53;;
51298;SDS011;37382;45.192;9.790;2023-07-24T16:21:43;14.00;;;8.30;;
51298;SDS011;37382;45.192;9.790;2023-07-24T16:24:12;13.32;;;9.70;;
51298;SDS011;37382;45.192;9.790;2023-07-24T16:26:43;13.63;;;8.75;;
51298;SDS011;37382;45.192;9.790;2023-07-24T16:29:12;14.25;;;8.50;;
51298;SDS011;37382;45.192;9.790;2023-07-24T16:31:40;11.80;;;8.88;;
51298;SDS011;37382;45.192;9.790;2023-07-24T16:34:07;14.73;;;9.80;;
51298;SDS011;37382;45.192;9.790;2023-07-24T16:36:36;15.23;;;9.95;;
51298;SDS011;37382;45.192;9.790;2023-07-24T16:39:03;18.98;;;9.25;;
51298;SDS011;37382;45.192;9.790;2023-07-24T16:41:33;15.85;;;9.48;;
51298;SDS011;37382;45.192;9.790;2023-07-24T16:44:01;17.00;;;9.15;;
51298;SDS011;37382;45.192;9.790;2023-07-24T16:46:29;13.68;;;9.20;;
51298;SDS011;37382;45.192;9.790;2023-07-24T16:48:57;14.90;;;10.07;;
51298;SDS011;37382;45.192;9.790;2023-07-24T16:51:24;16.63;;;9.20;;
51298;SDS011;37382;45.192;9.790;2023-07-24T16:53:52;17.67;;;9.80;;
51298;SDS011;37382;45.192;9.790;2023-07-24T16:56:19;15.18;;;9.15;;
51298;SDS011;37382;45.192;9.790;2023-07-24T16:58:47;21.33;;;10.10;;
51298;SDS011;37382;45.192;9.790;2023-07-24T17:01:15;18.23;;;9.60;;
51298;SDS011;37382;45.192;9.790;2023-07-24T17:03:42;15.45;;;9.98;;
51298;SDS011;37382;45.192;9.790;2023-07-24T17:06:10;17.10;;;9.95;;
51298;SDS011;37382;45.192;9.790;2023-07-24T17:08:38;16.13;;;9.90;;
51298;SDS011;37382;45.192;9.790;2023-07-24T17:11:06;15.25;;;9.60;;
51298;SDS011;37382;45.192;9.790;2023-07-24T17:13:33;15.70;;;9.45;;
51298;SDS011;37382;45.192;9.790;2023-07-24T17:16:01;18.52;;;10.00;;
51298;SDS011;37382;45.192;9.790;2023-07-24T17:18:29;16.48;;;9.45;;
51298;SDS011;37382;45.192;9.790;2023-07-24T17:20:57;13.38;;;9.80;;
51298;SDS011;37382;45.192;9.790;2023-07-24T17:23:25;28.02;;;9.48;;
51298;SDS011;37382;45.192;9.790;2023-07-24T17:25:53;23.33;;;10.23;;
51298;SDS011;37382;45.192;9.790;2023-07-24T17:28:21;16.05;;;9.32;;
51298;SDS011;37382;45.192;9.790;2023-07-24T17:30:49;16.58;;;9.93;;
51298;SDS011;37382;45.192;9.790;2023-07-24T17:33:18;16.92;;;10.13;;
51298;SDS011;37382;45.192;9.790;2023-07-24T17:35:46;15.77;;;9.93;;
51298;SDS011;37382;45.192;9.790;2023-07-24T17:38:13;15.57;;;10.13;;
51298;SDS011;37382;45.192;9.790;2023-07-24T17:40:41;16.83;;;10.82;;
51298;SDS011;37382;45.192;9.790;2023-07-24T17:43:09;16.80;;;10.20;;
51298;SDS011;37382;45.192;9.790;2023-07-24T17:45:37;18.38;;;10.23;;
51298;SDS011;37382;45.192;9.790;2023-07-24T17:48:05;16.42;;;10.07;;
51298;SDS011;37382;45.192;9.790;2023-07-24T17:50:34;25.90;;;9.65;;
51298;SDS011;37382;45.192;9.790;2023-07-24T17:53:01;16.52;;;10.00;;
51298;SDS011;37382;45.192;9.790;2023-07-24T17:55:30;15.63;;;10.60;;
51298;SDS011;37382;45.192;9.790;2023-07-24T17:57:57;18.88;;;10.85;;
51298;SDS011;37382;45.192;9.790;2023-07-24T18:00:25;16.52;;;10.40;;
51298;SDS011;37382;45.192;9.790;2023-07-24T18:02:54;15.98;;;10.55;;
51298;SDS011;37382;45.192;9.790;2023-07-24T18:05:22;18.73;;;10.90;;
51298;SDS011;37382;45.192;9.790;2023-07-24T18:07:49;16.60;;;10.95;;
51298;SDS011;37382;45.192;9.790;2023-07-24T18:10:19;15.60;;;10.27;;
51298;SDS011;37382;45.192;9.790;2023-07-24T18:12:47;18.67;;;10.95;;
51298;SDS011;37382;45.192;9.790;2023-07-24T18:15:15;17.85;;;11.13;;
51298;SDS011;37382;45.192;9.790;2023-07-24T18:17:43;16.25;;;10.70;;
51298;SDS011;37382;45.192;9.790;2023-07-24T18:20:13;18.48;;;11.48;;
51298;SDS011;37382;45.192;9.790;2023-07-24T18:22:40;22.98;;;10.80;;
51298;SDS011;37382;45.192;9.790;2023-07-24T18:25:09;20.90;;;11.25;;
51298;SDS011;37382;45.192;9.790;2023-07-24T18:27:37;15.18;;;10.30;;
51298;SDS011;37382;45.192;9.790;2023-07-24T18:30:06;25.13;;;10.68;;
51298;SDS011;37382;45.192;9.790;2023-07-24T18:32:34;20.20;;;11.80;;
51298;SDS011;37382;45.192;9.790;2023-07-24T18:35:01;15.98;;;10.45;;
51298;SDS011;37382;45.192;9.790;2023-07-24T18:37:30;22.88;;;11.55;;
51298;SDS011;37382;45.192;9.790;2023-07-24T18:39:57;21.65;;;11.25;;